Pflugerville's Hourly Summary for Friday, May 11, 2018
Hour Temp
(f)
RH
(%)
Solar Rad.
(MJ/m2)
Rainfall
(in)
Wind
(mph)
5/11/2018 12:00 AM 73 87 0 0 10.91
5/11/2018 1:00 AM 71 99 0 0 8.99
5/11/2018 2:00 AM 69 100 0 0 7.98
5/11/2018 3:00 AM 69 100 0 0 8.29
5/11/2018 4:00 AM 69 100 0 0 8.73
5/11/2018 5:00 AM 69 100 0 0 9.36
5/11/2018 6:00 AM 70 100 0 0 9.73
5/11/2018 7:00 AM 69 100 0.01 0 9.35
5/11/2018 8:00 AM 69 100 0.15 0 9.22
5/11/2018 9:00 AM 71 100 0.36 0 11.03
5/11/2018 10:00 AM 73 100 0.59 0 12.77
5/11/2018 11:00 AM 76 89 2.41 0 15.27
5/11/2018 12:00 PM 79 68 2.98 0 14.94
5/11/2018 1:00 PM 81 54 3.44 0 14.08
5/11/2018 2:00 PM 83 48 3.34 0 12.74
5/11/2018 3:00 PM 84 45 3.28 0 13.1
5/11/2018 4:00 PM 86 41 2.27 0 12.01
5/11/2018 5:00 PM 87 38 0.99 0 11.62
5/11/2018 6:00 PM 87 37 1.79 0 11.55
5/11/2018 7:00 PM 86 38 0.87 0 10.4
5/11/2018 8:00 PM 83 45 0.4 0 8.45
5/11/2018 9:00 PM 80 50 0.01 0 7.38
5/11/2018 10:00 PM 78 59 0 0 9.55
5/11/2018 11:00 PM 76 74 0 0 9.4
Data Summary 76 73 22.89 0.00 10.70